sensor_id;sensor_type;location;lat;lon;timestamp;pressure;altitude;pressure_sealevel;temperature;humidity
10658;BME280;5377;43.276;26.930;2023-03-25T00:02:13;98848.78;;;7.60;100.00
10658;BME280;5377;43.276;26.930;2023-03-25T00:04:42;98831.41;;;7.64;100.00
10658;BME280;5377;43.276;26.930;2023-03-25T00:07:09;98838.19;;;7.67;100.00
10658;BME280;5377;43.276;26.930;2023-03-25T00:09:36;98833.88;;;7.66;100.00
10658;BME280;5377;43.276;26.930;2023-03-25T00:12:03;98819.00;;;7.57;100.00
10658;BME280;5377;43.276;26.930;2023-03-25T00:14:30;98818.19;;;7.56;100.00
10658;BME280;5377;43.276;26.930;2023-03-25T00:16:58;98819.59;;;7.52;100.00
10658;BME280;5377;43.276;26.930;2023-03-25T00:19:25;98816.09;;;7.51;100.00
10658;BME280;5377;43.276;26.930;2023-03-25T00:21:54;98809.13;;;7.50;100.00
10658;BME280;5377;43.276;26.930;2023-03-25T00:24:21;98814.00;;;7.47;100.00
10658;BME280;5377;43.276;26.930;2023-03-25T00:26:48;98808.28;;;7.50;100.00
10658;BME280;5377;43.276;26.930;2023-03-25T00:29:15;98806.34;;;7.37;100.00
10658;BME280;5377;43.276;26.930;2023-03-25T00:31:42;98807.91;;;7.53;100.00
10658;BME280;5377;43.276;26.930;2023-03-25T00:34:09;98803.16;;;7.48;100.00
10658;BME280;5377;43.276;26.930;2023-03-25T00:36:39;98796.19;;;7.47;100.00
10658;BME280;5377;43.276;26.930;2023-03-25T00:39:09;98800.88;;;7.45;100.00
10658;BME280;5377;43.276;26.930;2023-03-25T00:41:36;98784.41;;;7.35;100.00
10658;BME280;5377;43.276;26.930;2023-03-25T00:44:06;98786.53;;;7.25;100.00
10658;BME280;5377;43.276;26.930;2023-03-25T00:46:33;98786.94;;;7.43;100.00
10658;BME280;5377;43.276;26.930;2023-03-25T00:49:00;98780.47;;;7.31;100.00
10658;BME280;5377;43.276;26.930;2023-03-25T00:51:28;98779.16;;;7.27;100.00
10658;BME280;5377;43.276;26.930;2023-03-25T00:53:57;98777.53;;;7.26;100.00
10658;BME280;5377;43.276;26.930;2023-03-25T00:56:27;98773.75;;;7.35;100.00
10658;BME280;5377;43.276;26.930;2023-03-25T00:58:55;98770.81;;;7.30;100.00
10658;BME280;5377;43.276;26.930;2023-03-25T01:01:23;98772.19;;;7.26;100.00
10658;BME280;5377;43.276;26.930;2023-03-25T01:03:51;98772.81;;;7.28;100.00
10658;BME280;5377;43.276;26.930;2023-03-25T01:06:25;98768.66;;;7.19;100.00
10658;BME280;5377;43.276;26.930;2023-03-25T01:08:55;98764.97;;;7.20;100.00
10658;BME280;5377;43.276;26.930;2023-03-25T01:11:24;98770.03;;;7.15;100.00
10658;BME280;5377;43.276;26.930;2023-03-25T01:13:55;98763.13;;;7.20;100.00
10658;BME280;5377;43.276;26.930;2023-03-25T01:16:22;98764.97;;;7.20;100.00
10658;BME280;5377;43.276;26.930;2023-03-25T01:18:49;98764.97;;;7.20;100.00
10658;BME280;5377;43.276;26.930;2023-03-25T01:21:16;98757.75;;;7.14;100.00
10658;BME280;5377;43.276;26.930;2023-03-25T01:23:43;98750.25;;;7.03;100.00
10658;BME280;5377;43.276;26.930;2023-03-25T01:26:10;98762.38;;;7.05;100.00
10658;BME280;5377;43.276;26.930;2023-03-25T01:28:38;98757.50;;;7.09;100.00
10658;BME280;5377;43.276;26.930;2023-03-25T01:31:09;98757.69;;;7.07;100.00
10658;BME280;5377;43.276;26.930;2023-03-25T01:33:36;98750.53;;;7.08;100.00
10658;BME280;5377;43.276;26.930;2023-03-25T01:36:04;98751.66;;;6.99;100.00
10658;BME280;5377;43.276;26.930;2023-03-25T01:38:34;98752.47;;;6.99;100.00
10658;BME280;5377;43.276;26.930;2023-03-25T01:41:01;98750.47;;;7.01;100.00
10658;BME280;5377;43.276;26.930;2023-03-25T01:43:29;98738.41;;;7.05;100.00
10658;BME280;5377;43.276;26.930;2023-03-25T01:45:56;98741.66;;;7.01;100.00
10658;BME280;5377;43.276;26.930;2023-03-25T01:48:26;98727.94;;;7.04;100.00
10658;BME280;5377;43.276;26.930;2023-03-25T01:50:59;98732.66;;;7.02;100.00
10658;BME280;5377;43.276;26.930;2023-03-25T01:53:28;98721.09;;;6.95;100.00
10658;BME280;5377;43.276;26.930;2023-03-25T01:55:56;98725.03;;;6.99;100.00
10658;BME280;5377;43.276;26.930;2023-03-25T01:58:27;98720.16;;;7.02;100.00
10658;BME280;5377;43.276;26.930;2023-03-25T02:00:55;98716.03;;;7.00;100.00
10658;BME280;5377;43.276;26.930;2023-03-25T02:03:24;98712.84;;;6.89;100.00
10658;BME280;5377;43.276;26.930;2023-03-25T02:05:55;98707.00;;;6.79;100.00
10658;BME280;5377;43.276;26.930;2023-03-25T02:08:25;98703.19;;;6.88;100.00
10658;BME280;5377;43.276;26.930;2023-03-25T02:10:52;98698.91;;;6.87;100.00
10658;BME280;5377;43.276;26.930;2023-03-25T02:13:19;98705.81;;;6.82;100.00
10658;BME280;5377;43.276;26.930;2023-03-25T02:16:02;98693.19;;;6.69;100.00
10658;BME280;5377;43.276;26.930;2023-03-25T02:18:41;98691.81;;;6.73;100.00
10658;BME280;5377;43.276;26.930;2023-03-25T02:21:44;98699.91;;;6.65;100.00
10658;BME280;5377;43.276;26.930;2023-03-25T02:24:55;98647.22;;;6.39;100.00
10658;BME280;5377;43.276;26.930;2023-03-25T02:27:39;98690.91;;;6.66;100.00
10658;BME280;5377;43.276;26.930;2023-03-25T02:33:36;98693.41;;;6.53;100.00
10658;BME280;5377;43.276;26.930;2023-03-25T02:39:30;98681.50;;;6.49;100.00
10658;BME280;5377;43.276;26.930;2023-03-25T02:42:03;98661.78;;;6.43;100.00
10658;BME280;5377;43.276;26.930;2023-03-25T02:44:36;98669.59;;;6.45;100.00
10658;BME280;5377;43.276;26.930;2023-03-25T02:47:07;98673.69;;;6.47;100.00
10658;BME280;5377;43.276;26.930;2023-03-25T02:49:37;98674.84;;;6.38;100.00
10658;BME280;5377;43.276;26.930;2023-03-25T02:52:09;98680.09;;;6.32;100.00
10658;BME280;5377;43.276;26.930;2023-03-25T02:54:39;98685.66;;;6.22;100.00
10658;BME280;5377;43.276;26.930;2023-03-25T02:57:11;98677.50;;;6.23;100.00
10658;BME280;5377;43.276;26.930;2023-03-25T02:59:41;98679.00;;;6.26;100.00
10658;BME280;5377;43.276;26.930;2023-03-25T03:02:10;98681.00;;;6.24;100.00
10658;BME280;5377;43.276;26.930;2023-03-25T03:04:44;98676.88;;;6.21;100.00
10658;BME280;5377;43.276;26.930;2023-03-25T03:07:16;98666.03;;;6.23;100.00
10658;BME280;5377;43.276;26.930;2023-03-25T03:09:51;98668.16;;;6.28;100.00
10658;BME280;5377;43.276;26.930;2023-03-25T03:12:31;98668.34;;;6.26;100.00
10658;BME280;5377;43.276;26.930;2023-03-25T03:15:10;98665.31;;;6.29;100.00
10658;BME280;5377;43.276;26.930;2023-03-25T03:17:44;98672.66;;;6.27;100.00
10658;BME280;5377;43.276;26.930;2023-03-25T03:20:17;98661.84;;;6.29;100.00
10658;BME280;5377;43.276;26.930;2023-03-25T03:22:47;98668.88;;;6.21;100.00
10658;BME280;5377;43.276;26.930;2023-03-25T03:25:26;98673.75;;;6.18;100.00
10658;BME280;5377;43.276;26.930;2023-03-25T03:28:02;98661.47;;;6.17;100.00
10658;BME280;5377;43.276;26.930;2023-03-25T03:30:35;98667.88;;;6.22;100.00
10658;BME280;5377;43.276;26.930;2023-03-25T03:33:10;98670.91;;;6.19;100.00
10658;BME280;5377;43.276;26.930;2023-03-25T03:35:42;98665.31;;;6.14;100.00
10658;BME280;5377;43.276;26.930;2023-03-25T03:38:15;98658.38;;;6.13;100.00
10658;BME280;5377;43.276;26.930;2023-03-25T03:40:50;98668.47;;;6.03;100.00
10658;BME280;5377;43.276;26.930;2023-03-25T03:43:22;98665.81;;;6.03;100.00
10658;BME280;5377;43.276;26.930;2023-03-25T03:45:54;98663.25;;;5.95;100.00
10658;BME280;5377;43.276;26.930;2023-03-25T03:48:24;98678.00;;;5.98;100.00
10658;BME280;5377;43.276;26.930;2023-03-25T03:50:54;98665.28;;;5.93;100.00
10658;BME280;5377;43.276;26.930;2023-03-25T03:53:25;98662.31;;;6.03;100.00
10658;BME280;5377;43.276;26.930;2023-03-25T03:55:57;98661.31;;;6.04;100.00
10658;BME280;5377;43.276;26.930;2023-03-25T03:58:29;98668.28;;;6.05;100.00
10658;BME280;5377;43.276;26.930;2023-03-25T04:01:02;98652.53;;;6.03;100.00
10658;BME280;5377;43.276;26.930;2023-03-25T04:03:35;98654.16;;;6.04;100.00
10658;BME280;5377;43.276;26.930;2023-03-25T04:06:11;98659.59;;;5.96;100.00
10658;BME280;5377;43.276;26.930;2023-03-25T04:08:48;98653.78;;;6.07;100.00
10658;BME280;5377;43.276;26.930;2023-03-25T04:11:26;98649.88;;;6.03;100.00
10658;BME280;5377;43.276;26.930;2023-03-25T04:13:58;98649.16;;;5.94;100.00
10658;BME280;5377;43.276;26.930;2023-03-25T04:16:26;98641.03;;;5.88;100.00
10658;BME280;5377;43.276;26.930;2023-03-25T04:18:53;98642.56;;;5.90;100.00
10658;BME280;5377;43.276;26.930;2023-03-25T04:21:23;98640.34;;;5.94;100.00
10658;BME280;5377;43.276;26.930;2023-03-25T04:23:50;98645.06;;;5.84;100.00
10658;BME280;5377;43.276;26.930;2023-03-25T04:26:17;98644.88;;;5.85;100.00
10658;BME280;5377;43.276;26.930;2023-03-25T04:28:45;98642.38;;;5.92;100.00
10658;BME280;5377;43.276;26.930;2023-03-25T04:31:13;98653.97;;;6.06;100.00
10658;BME280;5377;43.276;26.930;2023-03-25T04:33:42;98649.38;;;6.14;100.00
10658;BME280;5377;43.276;26.930;2023-03-25T04:36:13;98629.38;;;6.18;100.00
10658;BME280;5377;43.276;26.930;2023-03-25T04:38:40;98640.94;;;6.25;100.00
10658;BME280;5377;43.276;26.930;2023-03-25T04:41:10;98627.72;;;6.17;100.00
10658;BME280;5377;43.276;26.930;2023-03-25T04:43:38;98641.75;;;6.26;100.00
10658;BME280;5377;43.276;26.930;2023-03-25T04:46:09;98638.41;;;6.39;100.00
10658;BME280;5377;43.276;26.930;2023-03-25T04:48:38;98639.69;;;6.43;100.00
10658;BME280;5377;43.276;26.930;2023-03-25T04:51:06;98641.16;;;6.45;100.00
10658;BME280;5377;43.276;26.930;2023-03-25T04:53:35;98647.31;;;6.67;100.00
10658;BME280;5377;43.276;26.930;2023-03-25T04:56:04;98643.13;;;6.79;100.00
10658;BME280;5377;43.276;26.930;2023-03-25T04:58:31;98643.75;;;6.81;100.00
10658;BME280;5377;43.276;26.930;2023-03-25T05:00:58;98640.91;;;6.83;100.00
10658;BME280;5377;43.276;26.930;2023-03-25T05:03:32;98643.56;;;7.04;100.00
10658;BME280;5377;43.276;26.930;2023-03-25T05:05:59;98644.59;;;7.03;100.00
10658;BME280;5377;43.276;26.930;2023-03-25T05:08:26;98645.91;;;7.14;100.00
10658;BME280;5377;43.276;26.930;2023-03-25T05:10:54;98642.47;;;7.20;100.00
10658;BME280;5377;43.276;26.930;2023-03-25T05:13:21;98644.81;;;7.30;100.00
10658;BME280;5377;43.276;26.930;2023-03-25T05:15:47;98645.03;;;7.35;100.00
10658;BME280;5377;43.276;26.930;2023-03-25T05:18:15;98646.53;;;7.44;100.00
10658;BME280;5377;43.276;26.930;2023-03-25T05:20:45;98638.44;;;7.59;100.00
10658;BME280;5377;43.276;26.930;2023-03-25T05:23:15;98628.88;;;7.71;100.00
10658;BME280;5377;43.276;26.930;2023-03-25T05:25:43;98594.44;;;7.69;100.00
10658;BME280;5377;43.276;26.930;2023-03-25T05:28:10;98621.06;;;8.04;100.00
10658;BME280;5377;43.276;26.930;2023-03-25T05:30:39;98622.50;;;8.06;100.00
10658;BME280;5377;43.276;26.930;2023-03-25T05:33:06;98626.66;;;8.29;100.00
10658;BME280;5377;43.276;26.930;2023-03-25T05:35:34;98617.00;;;8.28;100.00
10658;BME280;5377;43.276;26.930;2023-03-25T05:38:03;98604.69;;;8.27;100.00
10658;BME280;5377;43.276;26.930;2023-03-25T05:40:30;98617.72;;;8.43;100.00
10658;BME280;5377;43.276;26.930;2023-03-25T05:42:57;98618.97;;;8.60;100.00
10658;BME280;5377;43.276;26.930;2023-03-25T05:45:24;98625.19;;;8.67;100.00
10658;BME280;5377;43.276;26.930;2023-03-25T05:47:52;98621.06;;;8.71;100.00
10658;BME280;5377;43.276;26.930;2023-03-25T05:50:18;98618.19;;;8.99;100.00
10658;BME280;5377;43.276;26.930;2023-03-25T05:52:46;98609.19;;;9.07;100.00
10658;BME280;5377;43.276;26.930;2023-03-25T05:55:20;98612.44;;;9.29;100.00
10658;BME280;5377;43.276;26.930;2023-03-25T05:57:48;98623.78;;;9.37;100.00
10658;BME280;5377;43.276;26.930;2023-03-25T06:00:16;98610.16;;;9.52;100.00
10658;BME280;5377;43.276;26.930;2023-03-25T06:02:45;98599.25;;;9.60;100.00
10658;BME280;5377;43.276;26.930;2023-03-25T06:05:13;98602.78;;;9.48;100.00
10658;BME280;5377;43.276;26.930;2023-03-25T06:07:41;98605.84;;;9.51;100.00
10658;BME280;5377;43.276;26.930;2023-03-25T06:10:09;98608.28;;;9.59;100.00
10658;BME280;5377;43.276;26.930;2023-03-25T06:12:38;98598.41;;;9.66;100.00
10658;BME280;5377;43.276;26.930;2023-03-25T06:15:06;98608.28;;;9.73;100.00
10658;BME280;5377;43.276;26.930;2023-03-25T06:17:34;98613.41;;;9.67;100.00
10658;BME280;5377;43.276;26.930;2023-03-25T06:20:04;98607.25;;;9.60;100.00
10658;BME280;5377;43.276;26.930;2023-03-25T06:22:36;98612.66;;;10.05;100.00
10658;BME280;5377;43.276;26.930;2023-03-25T06:25:04;98612.47;;;10.13;100.00
10658;BME280;5377;43.276;26.930;2023-03-25T06:27:31;98608.31;;;10.17;100.00
10658;BME280;5377;43.276;26.930;2023-03-25T06:30:01;98604.34;;;10.33;100.00
10658;BME280;5377;43.276;26.930;2023-03-25T06:32:28;98609.28;;;10.36;100.00
10658;BME280;5377;43.276;26.930;2023-03-25T06:34:55;98610.44;;;10.53;100.00
10658;BME280;5377;43.276;26.930;2023-03-25T06:37:22;98604.16;;;10.66;100.00
10658;BME280;5377;43.276;26.930;2023-03-25T06:39:50;98605.91;;;10.85;100.00
10658;BME280;5377;43.276;26.930;2023-03-25T06:42:21;98603.84;;;11.12;100.00
10658;BME280;5377;43.276;26.930;2023-03-25T06:44:48;98604.25;;;11.34;100.00
10658;BME280;5377;43.276;26.930;2023-03-25T06:47:16;98606.16;;;11.52;100.00
10658;BME280;5377;43.276;26.930;2023-03-25T06:49:43;98601.41;;;11.54;100.00
10658;BME280;5377;43.276;26.930;2023-03-25T06:52:10;98603.22;;;11.78;100.00
10658;BME280;5377;43.276;26.930;2023-03-25T06:54:37;98596.66;;;11.93;100.00
10658;BME280;5377;43.276;26.930;2023-03-25T06:57:04;98591.31;;;11.93;100.00
10658;BME280;5377;43.276;26.930;2023-03-25T06:59:31;98596.09;;;11.66;100.00
10658;BME280;5377;43.276;26.930;2023-03-25T07:01:58;98595.69;;;12.05;100.00
10658;BME280;5377;43.276;26.930;2023-03-25T07:04:26;98592.31;;;12.28;100.00
10658;BME280;5377;43.276;26.930;2023-03-25T07:06:53;98597.94;;;12.38;100.00
10658;BME280;5377;43.276;26.930;2023-03-25T07:09:20;98589.56;;;12.46;100.00
10658;BME280;5377;43.276;26.930;2023-03-25T07:11:47;98586.59;;;12.55;100.00
10658;BME280;5377;43.276;26.930;2023-03-25T07:14:14;98585.19;;;12.64;100.00
10658;BME280;5377;43.276;26.930;2023-03-25T07:16:41;98585.91;;;12.71;100.00
10658;BME280;5377;43.276;26.930;2023-03-25T07:19:07;98589.09;;;12.79;100.00
10658;BME280;5377;43.276;26.930;2023-03-25T07:21:36;98584.59;;;13.03;99.78
10658;BME280;5377;43.276;26.930;2023-03-25T07:24:03;98581.47;;;13.18;97.58
10658;BME280;5377;43.276;26.930;2023-03-25T07:26:29;98577.59;;;13.49;98.09
10658;BME280;5377;43.276;26.930;2023-03-25T07:28:56;98579.38;;;13.43;95.12
10658;BME280;5377;43.276;26.930;2023-03-25T07:31:23;98568.97;;;13.47;91.25
10658;BME280;5377;43.276;26.930;2023-03-25T07:33:50;98574.59;;;13.57;91.90
10658;BME280;5377;43.276;26.930;2023-03-25T07:36:17;98560.59;;;13.95;89.89
10658;BME280;5377;43.276;26.930;2023-03-25T07:38:47;98560.50;;;14.59;87.17
10658;BME280;5377;43.276;26.930;2023-03-25T07:41:15;98560.09;;;15.17;82.39
10658;BME280;5377;43.276;26.930;2023-03-25T07:43:41;98551.31;;;15.60;77.50
10658;BME280;5377;43.276;26.930;2023-03-25T07:46:10;98557.94;;;15.91;73.98
10658;BME280;5377;43.276;26.930;2023-03-25T07:48:37;98553.41;;;16.19;74.60
10658;BME280;5377;43.276;26.930;2023-03-25T07:51:05;98545.69;;;16.81;72.10
10658;BME280;5377;43.276;26.930;2023-03-25T07:53:33;98539.22;;;17.62;67.44
10658;BME280;5377;43.276;26.930;2023-03-25T07:56:05;98537.34;;;18.25;63.85
10658;BME280;5377;43.276;26.930;2023-03-25T07:58:32;98523.31;;;18.53;60.81
10658;BME280;5377;43.276;26.930;2023-03-25T08:00:59;98520.91;;;18.72;58.89
10658;BME280;5377;43.276;26.930;2023-03-25T08:03:26;98521.19;;;19.06;58.12
10658;BME280;5377;43.276;26.930;2023-03-25T08:05:53;98520.09;;;19.02;56.86
10658;BME280;5377;43.276;26.930;2023-03-25T08:08:20;98518.75;;;19.20;57.44
10658;BME280;5377;43.276;26.930;2023-03-25T08:10:47;98512.38;;;19.75;55.44
10658;BME280;5377;43.276;26.930;2023-03-25T08:13:15;98512.38;;;19.85;54.41
10658;BME280;5377;43.276;26.930;2023-03-25T08:15:42;98492.25;;;19.86;53.25
10658;BME280;5377;43.276;26.930;2023-03-25T08:18:08;98503.59;;;19.99;54.12
10658;BME280;5377;43.276;26.930;2023-03-25T08:20:35;98502.41;;;20.20;52.75
10658;BME280;5377;43.276;26.930;2023-03-25T08:23:03;98494.16;;;21.08;52.93
10658;BME280;5377;43.276;26.930;2023-03-25T08:25:34;98492.97;;;21.72;50.17
10658;BME280;5377;43.276;26.930;2023-03-25T08:28:02;98504.25;;;21.37;48.97
10658;BME280;5377;43.276;26.930;2023-03-25T08:30:30;98484.13;;;22.98;47.30
10658;BME280;5377;43.276;26.930;2023-03-25T08:33:02;98481.81;;;23.19;44.38
10658;BME280;5377;43.276;26.930;2023-03-25T08:35:29;98480.34;;;24.09;43.74
10658;BME280;5377;43.276;26.930;2023-03-25T08:37:56;98473.28;;;23.81;42.52
10658;BME280;5377;43.276;26.930;2023-03-25T08:40:26;98479.72;;;23.30;43.42
10658;BME280;5377;43.276;26.930;2023-03-25T08:42:53;98471.47;;;24.40;41.96
10658;BME280;5377;43.276;26.930;2023-03-25T08:45:20;98480.56;;;23.85;41.42
10658;BME280;5377;43.276;26.930;2023-03-25T08:47:48;98482.94;;;24.42;40.24
10658;BME280;5377;43.276;26.930;2023-03-25T08:50:15;98476.50;;;23.83;41.29
10658;BME280;5377;43.276;26.930;2023-03-25T08:52:42;98472.41;;;24.57;41.38
10658;BME280;5377;43.276;26.930;2023-03-25T08:55:09;98474.41;;;24.43;40.82
10658;BME280;5377;43.276;26.930;2023-03-25T08:57:36;98430.13;;;24.27;40.52
10658;BME280;5377;43.276;26.930;2023-03-25T09:00:03;98476.00;;;23.81;40.82
10658;BME280;5377;43.276;26.930;2023-03-25T09:02:33;98466.75;;;24.32;41.34
10658;BME280;5377;43.276;26.930;2023-03-25T09:05:01;98469.25;;;25.09;40.63
10658;BME280;5377;43.276;26.930;2023-03-25T09:07:28;98466.81;;;24.26;40.91
10658;BME280;5377;43.276;26.930;2023-03-25T09:09:55;98462.34;;;24.67;40.92
10658;BME280;5377;43.276;26.930;2023-03-25T09:12:22;98458.59;;;24.85;40.16
10658;BME280;5377;43.276;26.930;2023-03-25T09:14:49;98457.75;;;25.29;40.12
10658;BME280;5377;43.276;26.930;2023-03-25T09:17:16;98457.50;;;25.39;38.42
10658;BME280;5377;43.276;26.930;2023-03-25T09:19:43;98445.78;;;26.30;37.40
10658;BME280;5377;43.276;26.930;2023-03-25T09:22:11;98446.13;;;26.63;39.12
10658;BME280;5377;43.276;26.930;2023-03-25T09:24:38;98448.75;;;25.68;38.36
10658;BME280;5377;43.276;26.930;2023-03-25T09:27:05;98443.94;;;25.83;37.11
10658;BME280;5377;43.276;26.930;2023-03-25T09:29:33;98449.31;;;26.31;37.10
10658;BME280;5377;43.276;26.930;2023-03-25T09:31:59;98444.50;;;26.62;37.08
10658;BME280;5377;43.276;26.930;2023-03-25T09:34:27;98442.03;;;26.95;35.76
10658;BME280;5377;43.276;26.930;2023-03-25T09:36:54;98433.13;;;27.16;35.86
10658;BME280;5377;43.276;26.930;2023-03-25T09:39:22;98436.00;;;27.19;35.21
10658;BME280;5377;43.276;26.930;2023-03-25T09:42:21;98432.38;;;27.74;35.97
10658;BME280;5377;43.276;26.930;2023-03-25T09:44:55;98417.75;;;28.12;34.73
10658;BME280;5377;43.276;26.930;2023-03-25T09:47:25;98418.34;;;27.29;34.95
10658;BME280;5377;43.276;26.930;2023-03-25T09:49:59;98413.34;;;27.90;35.29
10658;BME280;5377;43.276;26.930;2023-03-25T09:52:29;98412.47;;;27.77;34.64
10658;BME280;5377;43.276;26.930;2023-03-25T09:55:03;98408.66;;;27.90;34.69
10658;BME280;5377;43.276;26.930;2023-03-25T09:57:39;98407.97;;;27.93;33.38
10658;BME280;5377;43.276;26.930;2023-03-25T10:00:16;98393.97;;;28.28;33.85
10658;BME280;5377;43.276;26.930;2023-03-25T10:02:48;98399.38;;;27.36;33.66
10658;BME280;5377;43.276;26.930;2023-03-25T10:05:48;98396.47;;;27.41;32.78
10658;BME280;5377;43.276;26.930;2023-03-25T10:08:23;98394.19;;;27.43;32.74
10658;BME280;5377;43.276;26.930;2023-03-25T10:11:01;98400.81;;;27.80;32.89
10658;BME280;5377;43.276;26.930;2023-03-25T10:13:38;98387.25;;;28.38;32.20
10658;BME280;5377;43.276;26.930;2023-03-25T10:16:13;98380.00;;;28.33;32.66
10658;BME280;5377;43.276;26.930;2023-03-25T10:18:48;98380.88;;;28.46;31.67
10658;BME280;5377;43.276;26.930;2023-03-25T10:21:22;98372.41;;;29.08;30.37
10658;BME280;5377;43.276;26.930;2023-03-25T10:23:59;98369.59;;;29.17;30.47
10658;BME280;5377;43.276;26.930;2023-03-25T10:26:30;98319.34;;;28.87;30.84
10658;BME280;5377;43.276;26.930;2023-03-25T10:29:05;98350.38;;;29.69;29.81
10658;BME280;5377;43.276;26.930;2023-03-25T10:31:38;98346.56;;;29.86;29.94
10658;BME280;5377;43.276;26.930;2023-03-25T10:34:09;98348.44;;;28.76;30.97
10658;BME280;5377;43.276;26.930;2023-03-25T10:36:40;98334.66;;;30.10;30.23
10658;BME280;5377;43.276;26.930;2023-03-25T10:39:13;98316.97;;;28.77;30.63
10658;BME280;5377;43.276;26.930;2023-03-25T10:41:46;98332.13;;;28.58;31.07
10658;BME280;5377;43.276;26.930;2023-03-25T10:44:16;98329.22;;;29.12;31.22
10658;BME280;5377;43.276;26.930;2023-03-25T10:46:45;98314.75;;;28.46;30.23
10658;BME280;5377;43.276;26.930;2023-03-25T10:49:14;98317.50;;;28.46;30.65
10658;BME280;5377;43.276;26.930;2023-03-25T10:51:42;98308.16;;;27.63;31.00
10658;BME280;5377;43.276;26.930;2023-03-25T10:54:10;98292.38;;;27.93;30.58
10658;BME280;5377;43.276;26.930;2023-03-25T10:56:40;98304.63;;;28.17;31.63
10658;BME280;5377;43.276;26.930;2023-03-25T10:59:15;98304.03;;;28.32;30.77
10658;BME280;5377;43.276;26.930;2023-03-25T11:01:43;98295.91;;;29.30;29.70
10658;BME280;5377;43.276;26.930;2023-03-25T11:04:13;98277.25;;;30.31;29.10
10658;BME280;5377;43.276;26.930;2023-03-25T11:06:45;98272.31;;;30.84;26.89
10658;BME280;5377;43.276;26.930;2023-03-25T11:09:14;98269.34;;;31.09;23.38
10658;BME280;5377;43.276;26.930;2023-03-25T11:11:43;98257.22;;;31.29;20.58
10658;BME280;5377;43.276;26.930;2023-03-25T11:14:12;98251.47;;;31.38;20.33
10658;BME280;5377;43.276;26.930;2023-03-25T11:16:43;98257.03;;;31.22;21.11
10658;BME280;5377;43.276;26.930;2023-03-25T11:19:17;98254.00;;;31.27;21.65
10658;BME280;5377;43.276;26.930;2023-03-25T11:21:46;98251.84;;;31.55;20.31
10658;BME280;5377;43.276;26.930;2023-03-25T11:24:17;98255.09;;;31.57;20.89
10658;BME280;5377;43.276;26.930;2023-03-25T11:26:45;98247.06;;;30.86;22.00
10658;BME280;5377;43.276;26.930;2023-03-25T11:29:17;98245.50;;;31.71;20.49
10658;BME280;5377;43.276;26.930;2023-03-25T11:31:55;98242.59;;;32.67;20.48
10658;BME280;5377;43.276;26.930;2023-03-25T11:34:22;98230.38;;;32.26;19.73
10658;BME280;5377;43.276;26.930;2023-03-25T11:36:52;98237.34;;;31.97;20.83
10658;BME280;5377;43.276;26.930;2023-03-25T11:39:26;98234.44;;;32.55;20.33
10658;BME280;5377;43.276;26.930;2023-03-25T11:41:54;98222.88;;;32.49;20.47
10658;BME280;5377;43.276;26.930;2023-03-25T11:44:26;98208.69;;;33.30;19.85
10658;BME280;5377;43.276;26.930;2023-03-25T11:46:56;98206.69;;;33.57;20.11
10658;BME280;5377;43.276;26.930;2023-03-25T11:49:25;98208.34;;;33.62;19.56
10658;BME280;5377;43.276;26.930;2023-03-25T11:51:56;98204.22;;;33.22;19.90
10658;BME280;5377;43.276;26.930;2023-03-25T11:54:26;98201.44;;;33.22;19.62
10658;BME280;5377;43.276;26.930;2023-03-25T11:56:54;98201.72;;;32.87;19.95
10658;BME280;5377;43.276;26.930;2023-03-25T11:59:25;98200.31;;;32.51;19.78
10658;BME280;5377;43.276;26.930;2023-03-25T12:02:00;98212.41;;;32.20;20.46
10658;BME280;5377;43.276;26.930;2023-03-25T12:04:28;98199.56;;;31.70;20.73
10658;BME280;5377;43.276;26.930;2023-03-25T12:07:00;98183.91;;;31.58;22.15
10658;BME280;5377;43.276;26.930;2023-03-25T12:09:28;98191.41;;;31.96;21.71
10658;BME280;5377;43.276;26.930;2023-03-25T12:12:08;98194.19;;;31.57;21.86
10658;BME280;5377;43.276;26.930;2023-03-25T12:14:48;98187.69;;;31.30;22.30
10658;BME280;5377;43.276;26.930;2023-03-25T12:17:25;98166.34;;;30.96;22.68
10658;BME280;5377;43.276;26.930;2023-03-25T12:20:02;98185.19;;;30.27;24.38
10658;BME280;5377;43.276;26.930;2023-03-25T12:22:47;98187.38;;;30.06;24.42
10658;BME280;5377;43.276;26.930;2023-03-25T12:25:24;98187.59;;;30.01;24.71
10658;BME280;5377;43.276;26.930;2023-03-25T12:31:13;98189.22;;;30.61;25.03
10658;BME280;5377;43.276;26.930;2023-03-25T12:33:54;98180.88;;;30.14;24.84
10658;BME280;5377;43.276;26.930;2023-03-25T12:36:38;98186.91;;;29.76;24.81
10658;BME280;5377;43.276;26.930;2023-03-25T12:39:26;98181.47;;;28.38;26.14
10658;BME280;5377;43.276;26.930;2023-03-25T12:42:03;98176.78;;;28.06;26.71
10658;BME280;5377;43.276;26.930;2023-03-25T12:44:49;98169.88;;;27.87;27.33
10658;BME280;5377;43.276;26.930;2023-03-25T12:47:28;98153.28;;;27.63;27.43
10658;BME280;5377;43.276;26.930;2023-03-25T12:50:20;98159.91;;;27.95;26.92
10658;BME280;5377;43.276;26.930;2023-03-25T12:52:55;98153.13;;;28.25;27.25
10658;BME280;5377;43.276;26.930;2023-03-25T12:55:32;98149.44;;;28.82;26.58
10658;BME280;5377;43.276;26.930;2023-03-25T12:58:18;98152.06;;;29.15;26.23
10658;BME280;5377;43.276;26.930;2023-03-25T13:00:56;98143.28;;;28.85;25.26
10658;BME280;5377;43.276;26.930;2023-03-25T13:03:52;98154.59;;;28.23;25.92
10658;BME280;5377;43.276;26.930;2023-03-25T13:06:27;98140.41;;;28.00;26.42
10658;BME280;5377;43.276;26.930;2023-03-25T13:08:59;98139.16;;;27.98;26.36
10658;BME280;5377;43.276;26.930;2023-03-25T13:11:33;98150.50;;;27.96;26.63
10658;BME280;5377;43.276;26.930;2023-03-25T13:14:06;98141.59;;;27.66;26.31
10658;BME280;5377;43.276;26.930;2023-03-25T13:16:36;98160.00;;;27.32;26.77
10658;BME280;5377;43.276;26.930;2023-03-25T13:19:10;98153.25;;;27.09;27.13
10658;BME280;5377;43.276;26.930;2023-03-25T13:21:40;98151.19;;;27.60;26.30
10658;BME280;5377;43.276;26.930;2023-03-25T13:24:13;98143.19;;;27.67;26.36
10658;BME280;5377;43.276;26.930;2023-03-25T13:26:44;98136.50;;;28.46;26.92
10658;BME280;5377;43.276;26.930;2023-03-25T13:29:17;98149.34;;;28.67;24.98